createdAt,value
2023-03-23T15:57:56.639Z,7.00
2023-03-23T16:00:28.184Z,7.70
2023-03-23T16:03:03.011Z,9.00
2023-03-23T16:05:31.985Z,7.50
2023-03-23T16:08:00.460Z,8.30
2023-03-23T16:10:29.105Z,8.20
2023-03-23T16:12:57.302Z,9.30
2023-03-23T16:15:25.715Z,9.80
2023-03-23T16:17:53.844Z,9.20
2023-03-23T16:20:23.753Z,9.20
2023-03-23T16:22:52.867Z,8.60
2023-03-23T16:25:21.303Z,9.10
2023-03-23T16:27:52.423Z,9.60
2023-03-23T16:30:27.690Z,8.70
2023-03-23T16:32:57.603Z,9.40
2023-03-23T16:35:26.365Z,8.30
2023-03-23T16:38:07.307Z,9.40
2023-03-23T16:40:37.780Z,8.50
2023-03-23T16:43:08.940Z,7.80
2023-03-23T16:45:43.221Z,7.90
2023-03-23T16:48:14.048Z,6.90
2023-03-23T16:50:44.106Z,6.30
2023-03-23T16:53:12.666Z,6.70
2023-03-23T16:55:41.126Z,7.20
2023-03-23T16:58:17.152Z,7.60
2023-03-23T17:00:49.500Z,8.10
2023-03-23T17:03:21.980Z,7.70
2023-03-23T17:05:51.894Z,7.80
2023-03-23T17:08:21.274Z,6.90
2023-03-23T17:10:49.854Z,7.70
2023-03-23T17:13:18.072Z,7.80
2023-03-23T17:15:47.529Z,8.10
2023-03-23T17:18:16.668Z,8.70
2023-03-23T17:20:45.312Z,8.00
2023-03-23T17:23:13.524Z,8.40
2023-03-23T17:25:42.236Z,8.20
2023-03-23T17:28:10.733Z,8.00
2023-03-23T17:30:44.004Z,8.10
2023-03-23T17:33:12.968Z,8.10
2023-03-23T17:35:42.250Z,7.40
2023-03-23T17:38:11.149Z,7.90
2023-03-23T17:40:39.311Z,8.00
2023-03-23T17:43:07.515Z,7.90
2023-03-23T17:45:36.621Z,9.40
2023-03-23T17:48:07.912Z,8.40
2023-03-23T17:50:36.807Z,7.70
2023-03-23T17:53:05.049Z,8.20
2023-03-23T17:55:33.346Z,7.80
2023-03-23T17:58:01.456Z,6.90
2023-03-23T18:00:29.639Z,4.00
2023-03-23T18:02:58.172Z,1.70
2023-03-23T18:05:27.981Z,1.40
2023-03-23T18:07:56.103Z,3.30
2023-03-23T18:10:24.225Z,4.10
2023-03-23T18:12:52.427Z,2.40
2023-03-23T18:15:20.600Z,4.50
2023-03-23T18:17:50.734Z,3.70
2023-03-23T18:20:18.919Z,3.70
2023-03-23T18:22:47.974Z,4.00
2023-03-23T18:25:16.229Z,5.80
2023-03-23T18:27:44.543Z,5.50
2023-03-23T18:30:12.883Z,5.60
2023-03-23T18:32:41.776Z,4.50
2023-03-23T18:35:11.321Z,4.50
2023-03-23T18:37:39.885Z,4.30
2023-03-23T18:40:12.140Z,4.00
2023-03-23T18:42:42.286Z,4.30
2023-03-23T18:45:11.760Z,5.50
2023-03-23T18:47:39.982Z,4.50
2023-03-23T18:50:10.168Z,4.80
2023-03-23T18:52:38.724Z,4.30
2023-03-23T18:55:07.174Z,4.80
2023-03-23T18:57:35.913Z,5.60
2023-03-23T19:00:04.916Z,11.80
2023-03-23T19:02:33.180Z,8.80
2023-03-23T19:05:01.803Z,8.20
2023-03-23T19:07:31.471Z,9.90
2023-03-23T19:10:00.201Z,8.20
2023-03-23T19:12:28.273Z,6.70
2023-03-23T19:14:56.352Z,6.70
2023-03-23T19:17:25.333Z,7.00
2023-03-23T19:19:53.572Z,7.30
2023-03-23T19:22:21.690Z,8.60
2023-03-23T19:24:49.845Z,8.50
2023-03-23T19:27:19.025Z,9.00
2023-03-23T19:29:47.521Z,8.20
2023-03-23T19:32:16.048Z,7.40
2023-03-23T19:34:44.280Z,8.30
2023-03-23T19:37:12.532Z,8.10
2023-03-23T19:39:42.559Z,9.20
2023-03-23T19:42:11.247Z,9.10
2023-03-23T19:44:39.445Z,10.90
2023-03-23T19:47:07.670Z,10.90
2023-03-23T19:49:36.467Z,6.80
2023-03-23T19:52:11.936Z,5.70
2023-03-23T19:54:42.243Z,4.30
2023-03-23T19:57:10.676Z,4.00
2023-03-23T19:59:39.326Z,4.30
2023-03-23T20:02:08.323Z,3.90
2023-03-23T20:04:36.930Z,3.50
2023-03-23T20:07:07.744Z,3.90
2023-03-23T20:09:38.118Z,3.90
2023-03-23T20:12:07.564Z,3.70
2023-03-23T20:14:37.504Z,3.70
2023-03-23T20:17:09.885Z,3.60
2023-03-23T20:19:38.783Z,3.40
2023-03-23T20:22:07.341Z,3.10
2023-03-23T20:24:35.805Z,3.30
2023-03-23T20:27:04.250Z,3.30
2023-03-23T20:29:33.578Z,3.50
2023-03-23T20:32:02.257Z,3.20
2023-03-23T20:34:31.370Z,3.20
2023-03-23T20:37:01.937Z,3.10
2023-03-23T20:39:32.756Z,3.50
2023-03-23T20:42:03.492Z,3.20
2023-03-23T20:44:34.978Z,3.30
2023-03-23T20:47:04.687Z,3.10
2023-03-23T20:49:35.388Z,3.20
2023-03-23T20:52:06.882Z,3.30
2023-03-23T20:54:35.896Z,2.90
2023-03-23T20:57:04.453Z,3.20
2023-03-23T20:59:32.602Z,3.50
2023-03-23T21:02:00.895Z,3.20
2023-03-23T21:04:30.288Z,3.60
2023-03-23T21:06:58.443Z,3.50
2023-03-23T21:09:26.835Z,3.00
2023-03-23T21:11:55.450Z,3.60
2023-03-23T21:14:23.636Z,3.90
2023-03-23T21:16:52.798Z,4.90
2023-03-23T21:19:21.944Z,5.10
2023-03-23T21:21:56.018Z,6.20
2023-03-23T21:24:28.289Z,6.10
2023-03-23T21:27:00.338Z,4.60
2023-03-23T21:29:28.666Z,4.50
2023-03-23T21:34:28.746Z,4.00
2023-03-23T21:36:56.924Z,4.10
2023-03-23T21:39:26.351Z,5.90
2023-03-23T21:41:54.831Z,6.50
2023-03-23T21:44:23.148Z,6.90
2023-03-23T21:46:52.438Z,6.40
2023-03-23T21:49:20.736Z,7.00
2023-03-23T21:51:49.751Z,6.60
2023-03-23T21:54:17.907Z,7.30
2023-03-23T21:56:46.128Z,7.60
2023-03-23T21:59:14.438Z,6.90
2023-03-23T22:01:42.605Z,6.00
2023-03-23T22:04:10.716Z,5.70
2023-03-23T22:06:39.001Z,4.30
2023-03-23T22:09:07.371Z,5.00
2023-03-23T22:11:37.290Z,5.00
2023-03-23T22:14:06.175Z,4.30
2023-03-23T22:16:34.787Z,4.30
2023-03-23T22:19:03.471Z,4.30
2023-03-23T22:21:32.011Z,3.50
2023-03-23T22:24:01.737Z,4.10
2023-03-23T22:26:30.557Z,4.10
2023-03-23T22:29:00.995Z,4.10
2023-03-23T22:31:34.017Z,3.60
2023-03-23T22:34:02.947Z,3.70
2023-03-23T22:36:33.383Z,4.00
2023-03-23T22:39:01.952Z,4.00
2023-03-23T22:41:34.203Z,4.30
2023-03-23T22:44:02.941Z,4.30
2023-03-23T22:46:31.089Z,4.10
2023-03-23T22:48:59.153Z,4.60
2023-03-23T22:51:27.754Z,4.50
2023-03-23T22:53:57.082Z,5.10
2023-03-23T22:56:25.496Z,5.30
2023-03-23T22:58:54.837Z,4.80
2023-03-23T23:01:23.707Z,4.50
2023-03-23T23:03:52.247Z,4.60
2023-03-23T23:06:21.318Z,5.30
2023-03-23T23:08:49.649Z,4.60
2023-03-23T23:11:20.722Z,5.20
2023-03-23T23:13:49.401Z,5.10
2023-03-23T23:16:18.984Z,5.10
2023-03-23T23:18:48.472Z,4.50
2023-03-23T23:21:18.989Z,5.20
2023-03-23T23:23:47.818Z,5.30
2023-03-23T23:26:16.820Z,5.20
2023-03-23T23:28:46.805Z,5.30
2023-03-23T23:31:31.485Z,5.60
2023-03-23T23:34:01.657Z,5.40
2023-03-23T23:36:32.489Z,5.40
2023-03-23T23:39:01.817Z,5.40
2023-03-23T23:41:30.864Z,4.80
2023-03-23T23:44:00.410Z,5.40
2023-03-23T23:46:32.921Z,5.80
2023-03-23T23:49:01.310Z,5.30
2023-03-23T23:51:30.122Z,4.50
2023-03-23T23:54:01.835Z,5.40
2023-03-23T23:56:39.147Z,4.90
2023-03-23T23:59:07.453Z,5.10
